createdAt,value
2022-08-17T00:00:43.800Z,26.40
2022-08-17T00:03:10.028Z,26.40
2022-08-17T00:05:42.507Z,26.40
2022-08-17T00:08:16.498Z,26.30
2022-08-17T00:10:50.428Z,26.30
2022-08-17T00:13:19.936Z,26.30
2022-08-17T00:15:48.250Z,26.30
2022-08-17T00:18:58.300Z,26.30
2022-08-17T00:21:10.483Z,26.30
2022-08-17T00:23:49.078Z,26.30
2022-08-17T00:26:35.836Z,26.30
2022-08-17T00:29:06.907Z,26.30
2022-08-17T00:31:35.555Z,26.30
2022-08-17T00:34:05.260Z,26.30
2022-08-17T00:36:33.575Z,26.30
2022-08-17T00:39:01.987Z,26.30
2022-08-17T00:41:32.346Z,26.30
2022-08-17T00:44:04.523Z,26.30
2022-08-17T00:46:34.623Z,26.30
2022-08-17T00:49:03.043Z,26.30
2022-08-17T00:51:34.243Z,26.30
2022-08-17T00:54:06.040Z,26.30
2022-08-17T00:56:36.204Z,26.30
2022-08-17T00:59:04.819Z,26.30
2022-08-17T01:01:33.178Z,26.30
2022-08-17T01:04:01.531Z,26.30
2022-08-17T01:06:33.954Z,26.30
2022-08-17T01:09:03.370Z,26.30
2022-08-17T01:11:32.158Z,26.30
2022-08-17T01:14:00.463Z,26.30
2022-08-17T01:16:29.644Z,26.30
2022-08-17T01:19:00.654Z,26.30
2022-08-17T01:21:33.521Z,26.30
2022-08-17T01:24:08.710Z,26.30
2022-08-17T01:26:38.431Z,26.30
2022-08-17T01:29:06.803Z,26.30
2022-08-17T01:31:37.400Z,26.30
2022-08-17T01:34:07.375Z,26.30
2022-08-17T01:36:35.837Z,26.30
2022-08-17T01:39:05.637Z,26.30
2022-08-17T01:41:34.187Z,26.30
2022-08-17T01:44:03.678Z,26.30
2022-08-17T01:46:34.589Z,26.30
2022-08-17T01:49:02.879Z,26.30
2022-08-17T01:51:32.496Z,26.30
2022-08-17T01:54:02.207Z,26.20
2022-08-17T01:56:31.832Z,26.20
2022-08-17T01:59:00.143Z,26.20
2022-08-17T02:01:30.436Z,26.20
2022-08-17T02:04:01.608Z,26.20
2022-08-17T02:06:31.475Z,26.20
2022-08-17T02:09:17.280Z,26.20
2022-08-17T02:11:47.242Z,26.20
2022-08-17T02:14:15.862Z,26.20
2022-08-17T02:16:48.913Z,26.20
2022-08-17T02:19:17.528Z,26.20
2022-08-17T02:21:47.413Z,26.20
2022-08-17T02:24:18.009Z,26.20
2022-08-17T02:27:07.791Z,26.20
2022-08-17T02:29:36.106Z,26.20
2022-08-17T02:32:04.963Z,26.20
2022-08-17T02:34:33.791Z,26.10
2022-08-17T02:37:02.165Z,26.20
2022-08-17T02:39:30.516Z,26.20
2022-08-17T02:42:01.814Z,26.20
2022-08-17T02:44:38.784Z,26.20
2022-08-17T02:47:08.625Z,26.20
2022-08-17T02:49:39.687Z,26.20
2022-08-17T02:52:08.402Z,26.10
2022-08-17T02:54:41.702Z,26.10
2022-08-17T02:57:10.684Z,26.10
2022-08-17T02:59:49.038Z,26.10
2022-08-17T03:02:17.564Z,26.10
2022-08-17T03:04:45.880Z,26.10
2022-08-17T03:07:15.240Z,26.10
2022-08-17T03:09:43.537Z,26.10
2022-08-17T03:12:13.535Z,26.10
2022-08-17T03:14:43.607Z,26.10
2022-08-17T03:17:15.874Z,26.10
2022-08-17T03:19:45.837Z,26.10
2022-08-17T03:22:36.750Z,26.10
2022-08-17T03:25:02.398Z,26.10
2022-08-17T03:27:32.358Z,26.10
2022-08-17T03:30:03.223Z,26.00
2022-08-17T03:32:31.521Z,26.10
2022-08-17T03:35:01.075Z,26.00
2022-08-17T03:37:29.378Z,26.10
2022-08-17T03:39:57.747Z,26.10
2022-08-17T03:42:32.149Z,26.00
2022-08-17T03:45:02.791Z,26.10
2022-08-17T03:47:48.629Z,26.10
2022-08-17T03:50:46.475Z,26.00
2022-08-17T03:53:33.270Z,26.10
2022-08-17T03:56:19.256Z,26.00
2022-08-17T03:58:48.974Z,26.00
2022-08-17T04:01:18.793Z,26.00
2022-08-17T04:03:47.149Z,26.00
2022-08-17T04:06:16.727Z,26.00
2022-08-17T04:08:47.777Z,26.00
2022-08-17T04:11:16.058Z,26.00
2022-08-17T04:13:44.367Z,26.00
2022-08-17T04:16:12.676Z,26.00
2022-08-17T04:18:42.313Z,26.00
2022-08-17T04:21:10.768Z,26.00
2022-08-17T04:23:39.140Z,26.00
2022-08-17T04:26:07.487Z,26.00
2022-08-17T04:28:35.791Z,26.00
2022-08-17T04:31:04.603Z,26.00
2022-08-17T04:33:32.984Z,26.00
2022-08-17T04:36:06.551Z,26.00
2022-08-17T04:38:36.018Z,25.80
2022-08-17T04:41:22.077Z,25.60
2022-08-17T04:43:54.879Z,25.50
2022-08-17T04:46:25.392Z,25.40
2022-08-17T04:48:57.447Z,25.40
2022-08-17T04:51:28.239Z,25.50
2022-08-17T04:53:58.228Z,25.60
2022-08-17T04:56:27.099Z,25.70
2022-08-17T04:58:56.560Z,25.70
2022-08-17T05:01:25.517Z,25.70
2022-08-17T05:03:54.357Z,25.70
2022-08-17T05:06:22.764Z,25.70
2022-08-17T05:08:52.459Z,25.80
2022-08-17T05:11:20.961Z,25.80
2022-08-17T05:13:50.606Z,25.80
2022-08-17T05:16:22.104Z,25.80
2022-08-17T05:18:50.498Z,25.80
2022-08-17T05:21:19.221Z,25.80
2022-08-17T05:23:47.746Z,25.40
2022-08-17T05:26:29.488Z,25.20
2022-08-17T05:29:02.564Z,25.20
2022-08-17T05:31:31.399Z,25.10
2022-08-17T05:33:59.723Z,25.00
2022-08-17T05:36:43.385Z,24.90
2022-08-17T05:39:17.365Z,24.90
2022-08-17T05:41:48.566Z,25.00
2022-08-17T05:44:17.253Z,25.00
2022-08-17T05:46:48.857Z,25.00
2022-08-17T05:49:18.667Z,25.00
2022-08-17T05:52:19.955Z,25.00
2022-08-17T05:54:55.405Z,24.90
2022-08-17T05:57:53.043Z,24.90
2022-08-17T06:00:26.232Z,24.80
2022-08-17T06:03:30.711Z,24.80
2022-08-17T06:06:18.069Z,24.70
2022-08-17T06:08:51.656Z,24.70
2022-08-17T06:11:28.168Z,24.70
2022-08-17T06:14:24.377Z,24.70
2022-08-17T06:16:54.735Z,24.70
2022-08-17T06:19:25.922Z,24.80
2022-08-17T06:21:54.688Z,24.80
2022-08-17T06:24:27.419Z,24.80
2022-08-17T06:26:56.537Z,24.80
2022-08-17T06:29:33.445Z,24.70
2022-08-17T06:32:02.401Z,24.70
2022-08-17T06:34:30.778Z,24.70
2022-08-17T06:37:03.700Z,24.80
2022-08-17T06:39:36.814Z,25.00
2022-08-17T06:43:02.717Z,25.20
2022-08-17T06:45:07.940Z,25.30
2022-08-17T06:47:37.570Z,25.40
2022-08-17T06:50:15.542Z,25.40
2022-08-17T06:52:49.794Z,25.40
2022-08-17T06:55:21.145Z,25.10
2022-08-17T06:57:51.976Z,24.90
2022-08-17T07:00:23.176Z,24.80
2022-08-17T07:03:02.439Z,24.70
2022-08-17T07:05:33.200Z,24.70
2022-08-17T07:08:03.910Z,24.80
2022-08-17T07:10:40.512Z,24.90
2022-08-17T07:13:25.324Z,24.80
2022-08-17T07:15:58.524Z,24.70
2022-08-17T07:18:27.739Z,24.50
2022-08-17T07:21:01.112Z,24.40
2022-08-17T07:23:36.815Z,24.40
2022-08-17T07:26:06.071Z,24.40
2022-08-17T07:28:34.471Z,24.40
2022-08-17T07:31:04.610Z,24.60
2022-08-17T07:33:34.194Z,24.60
2022-08-17T07:36:06.345Z,24.70
2022-08-17T07:38:35.910Z,24.80
2022-08-17T07:41:07.895Z,24.90
2022-08-17T07:43:39.618Z,24.90
2022-08-17T07:46:34.716Z,24.90
2022-08-17T07:49:24.487Z,24.90
2022-08-17T07:52:47.378Z,25.00
2022-08-17T07:54:49.851Z,25.10
2022-08-17T07:57:35.559Z,25.20
2022-08-17T08:00:19.393Z,25.20
2022-08-17T08:03:14.691Z,25.30
2022-08-17T08:05:51.113Z,25.40
2022-08-17T08:08:28.057Z,25.40
2022-08-17T08:11:02.006Z,25.40
2022-08-17T08:13:30.984Z,25.40
2022-08-17T08:16:20.755Z,25.50
2022-08-17T08:18:55.640Z,25.50
2022-08-17T08:21:37.627Z,25.50
2022-08-17T08:24:16.801Z,25.50
2022-08-17T08:26:46.386Z,25.60
2022-08-17T08:29:20.273Z,25.60
2022-08-17T08:31:57.134Z,25.60
2022-08-17T08:34:55.878Z,25.60
2022-08-17T08:37:40.532Z,25.60
2022-08-17T08:40:16.450Z,25.40
2022-08-17T08:42:48.098Z,25.30
2022-08-17T08:45:19.089Z,25.20
2022-08-17T08:47:58.067Z,25.20
2022-08-17T08:50:40.279Z,25.20
2022-08-17T08:53:14.240Z,25.20
2022-08-17T08:55:51.338Z,25.20
2022-08-17T08:58:31.731Z,25.20
2022-08-17T09:01:16.721Z,25.20
2022-08-17T09:04:16.987Z,25.20
2022-08-17T09:06:57.828Z,25.20
2022-08-17T09:09:29.328Z,25.10
2022-08-17T09:12:05.912Z,25.10
2022-08-17T09:14:46.610Z,25.10
2022-08-17T09:17:20.115Z,25.10
2022-08-17T09:19:50.734Z,25.10
2022-08-17T09:22:31.793Z,25.10
2022-08-17T09:25:03.776Z,25.10
2022-08-17T09:27:33.103Z,25.10
2022-08-17T09:30:03.937Z,25.10
2022-08-17T09:32:34.520Z,25.10
2022-08-17T09:35:05.015Z,25.10
2022-08-17T09:37:43.097Z,25.10
2022-08-17T09:40:14.793Z,25.10
2022-08-17T09:42:46.741Z,25.10
2022-08-17T09:45:23.717Z,25.10
2022-08-17T09:47:54.631Z,25.10
2022-08-17T09:51:04.358Z,25.10
2022-08-17T09:53:16.808Z,25.10
2022-08-17T09:56:10.690Z,25.10
2022-08-17T09:58:47.567Z,25.10
2022-08-17T10:01:18.074Z,25.10
2022-08-17T10:03:58.426Z,25.10
2022-08-17T10:06:30.727Z,25.00
2022-08-17T10:09:08.130Z,25.00
2022-08-17T10:11:59.022Z,25.20
2022-08-17T10:14:37.627Z,25.20
2022-08-17T10:17:16.174Z,25.30
2022-08-17T10:19:46.609Z,25.40
2022-08-17T10:22:38.027Z,25.40
2022-08-17T10:25:37.587Z,25.50
2022-08-17T10:28:19.965Z,25.50
2022-08-17T10:30:51.568Z,25.50
2022-08-17T10:33:23.396Z,25.50
2022-08-17T10:35:57.206Z,25.50
2022-08-17T10:38:36.412Z,25.50
2022-08-17T10:41:16.610Z,25.50
2022-08-17T10:44:37.158Z,25.60
2022-08-17T10:46:52.621Z,25.60
2022-08-17T10:49:30.177Z,25.60
2022-08-17T10:51:59.843Z,25.60
2022-08-17T10:54:42.331Z,25.60
2022-08-17T10:57:37.106Z,25.70
2022-08-17T11:00:08.820Z,25.70
2022-08-17T11:02:49.890Z,25.70
2022-08-17T11:05:43.440Z,25.60
2022-08-17T11:08:34.060Z,25.50
2022-08-17T11:11:12.679Z,25.40
2022-08-17T11:13:45.979Z,25.20
2022-08-17T11:16:29.694Z,25.20
2022-08-17T11:19:55.743Z,25.10
2022-08-17T11:22:35.372Z,25.10
2022-08-17T11:25:19.687Z,24.90
2022-08-17T11:27:53.780Z,25.00
2022-08-17T11:30:49.027Z,24.90
2022-08-17T11:33:54.889Z,24.90
2022-08-17T11:36:33.525Z,24.90
2022-08-17T11:39:04.423Z,25.00
2022-08-17T11:41:36.995Z,25.00
2022-08-17T11:44:16.923Z,25.10
2022-08-17T11:47:14.424Z,25.20
2022-08-17T11:50:15.658Z,25.20
2022-08-17T11:52:47.001Z,25.20
2022-08-17T11:56:02.782Z,25.20
2022-08-17T11:58:39.131Z,25.10
2022-08-17T12:01:08.338Z,25.20
2022-08-17T12:03:55.246Z,25.20
2022-08-17T12:06:51.362Z,25.20
2022-08-17T12:09:21.079Z,25.20
2022-08-17T12:11:57.775Z,25.20
2022-08-17T12:15:09.141Z,25.10
2022-08-17T12:17:40.434Z,25.20
2022-08-17T12:20:16.238Z,25.20
2022-08-17T12:22:50.255Z,25.20
2022-08-17T12:25:20.132Z,25.20
2022-08-17T12:28:05.098Z,25.20
2022-08-17T12:30:34.217Z,25.20
2022-08-17T12:33:02.831Z,25.20
2022-08-17T12:35:35.114Z,25.20
2022-08-17T12:38:04.484Z,25.20
2022-08-17T12:40:33.156Z,25.20
2022-08-17T12:43:02.484Z,25.20
2022-08-17T12:45:31.650Z,25.20
2022-08-17T12:48:07.736Z,25.10
2022-08-17T12:50:38.492Z,25.10
2022-08-17T12:53:11.683Z,25.20
2022-08-17T12:55:40.752Z,25.10
2022-08-17T12:58:14.427Z,25.10
2022-08-17T13:00:48.561Z,25.10
2022-08-17T13:03:19.178Z,25.10
2022-08-17T13:05:58.144Z,25.10
2022-08-17T13:08:28.956Z,25.20
2022-08-17T13:10:58.228Z,25.20
2022-08-17T13:13:27.490Z,25.20
2022-08-17T13:15:57.180Z,25.20
2022-08-17T13:18:41.097Z,25.20
2022-08-17T13:21:19.052Z,25.20
2022-08-17T13:23:56.844Z,25.10
2022-08-17T13:26:29.487Z,25.00
2022-08-17T13:28:57.826Z,25.00
2022-08-17T13:31:43.444Z,24.90
2022-08-17T13:34:51.357Z,24.90
2022-08-17T13:37:34.102Z,25.10
2022-08-17T13:40:25.813Z,25.20
2022-08-17T13:42:54.496Z,25.40
2022-08-17T13:45:44.779Z,25.40
2022-08-17T13:48:17.654Z,25.50
2022-08-17T13:50:47.031Z,25.50
2022-08-17T13:53:20.998Z,25.50
2022-08-17T13:55:51.411Z,25.60
2022-08-17T13:58:24.129Z,25.60
2022-08-17T14:00:52.738Z,25.60
2022-08-17T14:03:21.241Z,25.60
2022-08-17T14:05:50.081Z,25.70
2022-08-17T14:08:20.751Z,25.70
2022-08-17T14:10:51.030Z,25.70
2022-08-17T14:13:19.451Z,25.70
2022-08-17T14:15:54.462Z,25.70
2022-08-17T14:18:55.732Z,25.70
2022-08-17T14:21:16.031Z,25.70
2022-08-17T14:23:54.453Z,25.80
2022-08-17T14:26:23.745Z,25.70
2022-08-17T14:28:56.733Z,25.70
2022-08-17T14:31:27.465Z,25.70
2022-08-17T14:33:56.034Z,25.70
2022-08-17T14:36:24.454Z,25.70
2022-08-17T14:38:54.138Z,25.70
2022-08-17T14:41:24.835Z,25.70
2022-08-17T14:43:53.817Z,25.70
2022-08-17T14:46:22.573Z,25.70
2022-08-17T14:48:57.127Z,25.70
2022-08-17T14:51:28.975Z,25.80
2022-08-17T14:53:58.662Z,25.80
2022-08-17T14:56:27.128Z,25.70
2022-08-17T14:59:00.105Z,25.70
2022-08-17T15:01:28.482Z,25.70
2022-08-17T15:04:03.740Z,25.70
2022-08-17T15:06:32.379Z,25.70
2022-08-17T15:09:02.743Z,25.70
2022-08-17T15:11:31.030Z,25.70
2022-08-17T15:13:59.306Z,25.80
2022-08-17T15:16:27.628Z,25.70
2022-08-17T15:18:55.979Z,25.70
2022-08-17T15:21:24.259Z,25.70
2022-08-17T15:23:58.519Z,25.70
2022-08-17T15:26:30.432Z,25.70
2022-08-17T15:28:58.777Z,25.80
2022-08-17T15:31:31.834Z,25.70
2022-08-17T15:34:00.823Z,25.60
2022-08-17T15:36:29.171Z,25.60
2022-08-17T15:38:58.880Z,25.60
2022-08-17T15:41:29.335Z,25.50
2022-08-17T15:43:57.655Z,25.30
2022-08-17T15:46:26.514Z,25.20
2022-08-17T15:48:58.199Z,25.10
2022-08-17T15:51:28.206Z,25.10
2022-08-17T15:53:57.569Z,25.10
2022-08-17T15:56:26.147Z,25.00
2022-08-17T15:58:56.058Z,25.00
2022-08-17T16:02:29.843Z,24.90
2022-08-17T16:04:26.786Z,24.90
2022-08-17T16:06:59.719Z,24.90
2022-08-17T16:09:28.204Z,24.90
2022-08-17T16:11:56.722Z,24.90
2022-08-17T16:14:34.127Z,25.00
2022-08-17T16:17:04.439Z,24.90
2022-08-17T16:19:33.312Z,25.00
2022-08-17T16:22:01.642Z,24.90
2022-08-17T16:24:29.961Z,24.90
2022-08-17T16:26:58.294Z,24.90
2022-08-17T16:29:27.983Z,25.00
2022-08-17T16:31:56.291Z,25.00
2022-08-17T16:34:24.824Z,24.90
2022-08-17T16:36:56.181Z,25.00
2022-08-17T16:39:26.484Z,25.00
2022-08-17T16:41:55.790Z,25.00
2022-08-17T16:44:24.712Z,25.00
2022-08-17T16:46:54.393Z,25.00
2022-08-17T16:49:36.174Z,25.00
2022-08-17T16:52:07.556Z,25.00
2022-08-17T16:54:37.881Z,24.90
2022-08-17T16:57:06.848Z,25.00
2022-08-17T16:59:40.789Z,24.90
2022-08-17T17:02:14.563Z,24.90
2022-08-17T17:04:46.800Z,25.00
2022-08-17T17:07:34.947Z,25.00
2022-08-17T17:10:06.109Z,24.90
2022-08-17T17:13:00.788Z,25.00
2022-08-17T17:15:23.985Z,24.90
2022-08-17T17:17:53.643Z,24.90
2022-08-17T17:20:25.355Z,24.90
2022-08-17T17:22:58.776Z,24.90
2022-08-17T17:25:29.218Z,24.90
2022-08-17T17:28:01.885Z,24.90
2022-08-17T17:30:33.025Z,25.00
2022-08-17T17:33:05.275Z,24.90
2022-08-17T17:35:43.586Z,24.90
2022-08-17T17:38:19.805Z,24.90
2022-08-17T17:40:52.187Z,24.90
2022-08-17T17:43:38.397Z,24.90
2022-08-17T17:46:27.114Z,24.90
2022-08-17T17:48:59.018Z,24.90
2022-08-17T17:52:05.221Z,24.80
2022-08-17T17:54:28.023Z,24.80
2022-08-17T17:56:59.573Z,24.80
2022-08-17T17:59:30.382Z,24.80
2022-08-17T18:02:10.783Z,24.90
2022-08-17T18:04:44.527Z,24.80
2022-08-17T18:07:17.535Z,24.90
2022-08-17T18:10:13.689Z,24.90
2022-08-17T18:13:00.243Z,24.90
2022-08-17T18:15:31.395Z,24.80
2022-08-17T18:18:24.348Z,24.80
2022-08-17T18:20:56.020Z,24.80
2022-08-17T18:23:28.441Z,24.80
2022-08-17T18:25:57.169Z,24.80
2022-08-17T18:28:29.069Z,24.80
2022-08-17T18:31:12.243Z,24.80
2022-08-17T18:33:41.312Z,24.80
2022-08-17T18:36:11.864Z,24.80
2022-08-17T18:38:41.388Z,24.80
2022-08-17T18:41:19.472Z,24.70
2022-08-17T18:44:02.208Z,24.70
2022-08-17T18:46:33.059Z,24.70
2022-08-17T18:49:05.116Z,24.70
2022-08-17T18:51:42.371Z,24.80
2022-08-17T18:54:17.119Z,24.70
2022-08-17T18:56:50.010Z,24.70
2022-08-17T18:59:28.298Z,24.70
2022-08-17T19:02:11.619Z,24.70
2022-08-17T19:05:02.748Z,24.80
2022-08-17T19:07:34.712Z,24.80
2022-08-17T19:10:10.252Z,24.70
2022-08-17T19:12:40.622Z,24.70
2022-08-17T19:15:10.838Z,24.70
2022-08-17T19:17:42.902Z,24.70
2022-08-17T19:20:17.123Z,24.70
2022-08-17T19:23:02.905Z,24.70
2022-08-17T19:25:34.197Z,24.70
2022-08-17T19:28:12.601Z,24.70
2022-08-17T19:30:51.403Z,24.60
2022-08-17T19:33:20.431Z,24.60
2022-08-17T19:35:55.802Z,24.60
2022-08-17T19:38:35.064Z,24.60
2022-08-17T19:41:06.160Z,24.60
2022-08-17T19:43:57.705Z,24.60
2022-08-17T19:46:31.006Z,24.60
2022-08-17T19:49:07.013Z,24.60
2022-08-17T19:51:40.871Z,24.60
2022-08-17T19:54:14.982Z,24.60
2022-08-17T19:56:47.665Z,24.60
2022-08-17T19:59:23.910Z,24.60
2022-08-17T20:01:54.192Z,24.60
2022-08-17T20:04:33.581Z,24.60
2022-08-17T20:07:05.912Z,24.80
2022-08-17T20:09:38.262Z,24.80
2022-08-17T20:12:09.423Z,24.90
2022-08-17T20:14:41.224Z,24.90
2022-08-17T20:17:24.774Z,24.90
2022-08-17T20:19:59.733Z,24.90
2022-08-17T20:22:30.169Z,25.00
2022-08-17T20:25:08.303Z,25.00
2022-08-17T20:27:50.115Z,25.10
2022-08-17T20:30:34.047Z,25.00
2022-08-17T20:33:02.525Z,24.80
2022-08-17T20:35:31.902Z,24.90
2022-08-17T20:38:02.821Z,24.90
2022-08-17T20:40:37.196Z,25.00
2022-08-17T20:43:40.027Z,25.00
2022-08-17T20:46:13.163Z,25.10
2022-08-17T20:48:42.968Z,25.10
2022-08-17T20:51:25.873Z,25.10
2022-08-17T20:54:09.385Z,25.10
2022-08-17T20:56:57.361Z,25.10
2022-08-17T21:00:13.925Z,25.10
2022-08-17T21:02:44.323Z,25.10
2022-08-17T21:05:32.346Z,25.10
2022-08-17T21:08:13.983Z,25.20
2022-08-17T21:10:43.892Z,25.20
2022-08-17T21:13:32.634Z,25.20
2022-08-17T21:16:11.236Z,25.20
2022-08-17T21:18:43.561Z,25.20
2022-08-17T21:21:20.310Z,25.20
2022-08-17T21:24:14.256Z,25.10
2022-08-17T21:26:50.364Z,25.10
2022-08-17T21:29:32.399Z,25.00
2022-08-17T21:32:19.290Z,24.90
2022-08-17T21:35:28.261Z,24.90
2022-08-17T21:37:59.975Z,24.80
2022-08-17T21:40:29.036Z,24.90
2022-08-17T21:42:59.036Z,24.80
2022-08-17T21:45:30.390Z,24.80
2022-08-17T21:48:11.422Z,24.80
2022-08-17T21:50:41.585Z,24.80
2022-08-17T21:53:10.532Z,24.80
2022-08-17T21:55:38.943Z,24.70
2022-08-17T21:58:13.762Z,24.80
2022-08-17T22:00:47.929Z,24.70
2022-08-17T22:03:23.551Z,24.70
2022-08-17T22:05:51.926Z,24.70
2022-08-17T22:08:25.174Z,24.80
2022-08-17T22:11:01.003Z,24.80
2022-08-17T22:13:30.057Z,24.70
2022-08-17T22:16:28.020Z,24.80
2022-08-17T22:18:57.990Z,24.70
2022-08-17T22:21:26.940Z,24.70
2022-08-17T22:24:08.767Z,24.70
2022-08-17T22:27:00.858Z,24.70
2022-08-17T22:29:46.886Z,24.70
2022-08-17T22:32:36.013Z,24.70
2022-08-17T22:35:18.531Z,24.70
2022-08-17T22:37:47.148Z,24.80
2022-08-17T22:40:25.947Z,24.70
2022-08-17T22:42:59.308Z,24.70
2022-08-17T22:45:28.800Z,24.70
2022-08-17T22:47:59.122Z,24.70
2022-08-17T22:50:31.848Z,24.80
2022-08-17T22:53:18.777Z,24.70
2022-08-17T22:56:08.309Z,24.70
2022-08-17T22:58:58.780Z,24.70
2022-08-17T23:01:29.262Z,24.70
2022-08-17T23:04:02.461Z,24.80
2022-08-17T23:06:32.427Z,24.70
2022-08-17T23:09:03.012Z,24.70
2022-08-17T23:11:48.728Z,24.70
2022-08-17T23:14:19.034Z,24.70
2022-08-17T23:16:50.169Z,24.70
2022-08-17T23:19:20.773Z,24.70
2022-08-17T23:21:53.714Z,24.70
2022-08-17T23:24:23.392Z,24.70
2022-08-17T23:26:53.082Z,24.70
2022-08-17T23:29:22.480Z,24.70
2022-08-17T23:31:51.006Z,24.70
2022-08-17T23:34:20.734Z,24.70
2022-08-17T23:36:53.121Z,24.70
2022-08-17T23:39:24.567Z,24.70
2022-08-17T23:41:58.093Z,24.70
2022-08-17T23:44:26.529Z,24.70
2022-08-17T23:46:54.896Z,24.80
2022-08-17T23:49:25.258Z,24.70
2022-08-17T23:51:55.123Z,24.70
2022-08-17T23:54:24.780Z,24.70
2022-08-17T23:56:53.314Z,24.70
2022-08-17T23:59:22.760Z,24.70
